createdAt,value
2018-04-13T00:02:11.109Z,87.98
2018-04-13T00:04:40.416Z,87.64
2018-04-13T00:07:09.629Z,87.49
2018-04-13T00:09:38.871Z,87.47
2018-04-13T00:12:08.148Z,87.65
2018-04-13T00:14:37.550Z,88.14
2018-04-13T00:17:06.805Z,88.64
2018-04-13T00:19:36.071Z,88.72
2018-04-13T00:22:05.289Z,88.72
2018-04-13T00:24:35.266Z,88.69
2018-04-13T00:27:04.497Z,88.37
2018-04-13T00:29:34.532Z,88.31
2018-04-13T00:32:03.778Z,88.32
2018-04-13T00:34:33.000Z,88.33
2018-04-13T00:37:03.033Z,88.49
2018-04-13T00:39:33.030Z,88.92
2018-04-13T00:42:02.262Z,88.94
2018-04-13T00:44:31.469Z,89.12
2018-04-13T00:47:00.737Z,89.36
2018-04-13T00:49:30.754Z,89.91
2018-04-13T00:52:00.775Z,89.76
2018-04-13T00:54:29.979Z,89.83
2018-04-13T00:56:59.233Z,89.99
2018-04-13T00:59:28.446Z,89.98
2018-04-13T01:01:59.257Z,89.93
2018-04-13T01:04:28.491Z,89.83
2018-04-13T01:06:58.528Z,89.71
2018-04-13T01:09:27.757Z,89.66
2018-04-13T01:11:57.018Z,89.72
2018-04-13T01:14:27.044Z,89.40
2018-04-13T01:16:56.294Z,89.07
2018-04-13T01:19:25.657Z,88.97
2018-04-13T01:21:54.887Z,88.76
2018-04-13T01:24:24.364Z,88.61
2018-04-13T01:26:53.545Z,88.29
2018-04-13T01:29:22.782Z,88.15
2018-04-13T01:31:52.755Z,88.07
2018-04-13T01:34:21.980Z,88.19
2018-04-13T01:36:51.204Z,88.04
2018-04-13T01:39:20.466Z,88.07
2018-04-13T01:41:49.673Z,87.76
2018-04-13T01:44:18.954Z,87.98
2018-04-13T01:46:48.159Z,88.15
2018-04-13T01:49:17.396Z,87.92
2018-04-13T01:51:46.623Z,88.08
2018-04-13T01:54:16.658Z,87.74
2018-04-13T01:56:45.906Z,87.67
2018-04-13T01:59:15.146Z,87.51
2018-04-13T02:01:44.405Z,87.44
2018-04-13T02:04:13.655Z,87.52
2018-04-13T02:06:43.632Z,87.45
2018-04-13T02:09:12.870Z,87.78
2018-04-13T02:11:42.075Z,87.68
2018-04-13T02:14:11.301Z,87.74
2018-04-13T02:16:41.367Z,87.48
2018-04-13T02:19:11.359Z,87.74
2018-04-13T02:21:41.437Z,88.04
2018-04-13T02:24:10.642Z,88.16
2018-04-13T02:26:39.907Z,88.14
2018-04-13T02:29:09.125Z,88.15
2018-04-13T02:31:38.395Z,88.50
2018-04-13T02:34:08.361Z,88.46
2018-04-13T02:36:37.613Z,88.54
2018-04-13T02:39:06.834Z,88.58
2018-04-13T02:41:36.052Z,88.58
2018-04-13T02:44:05.265Z,88.79
2018-04-13T02:46:34.477Z,89.02
2018-04-13T02:49:04.515Z,89.07
2018-04-13T02:51:34.525Z,89.20
2018-04-13T02:54:04.520Z,89.14
2018-04-13T02:56:33.733Z,89.49
2018-04-13T02:59:03.758Z,89.54
2018-04-13T03:01:33.764Z,89.63
2018-04-13T03:04:03.749Z,89.45
2018-04-13T03:06:32.983Z,89.53
2018-04-13T03:09:02.983Z,89.45
2018-04-13T03:11:33.031Z,89.43
2018-04-13T03:14:02.292Z,89.39
2018-04-13T03:16:31.708Z,89.28
2018-04-13T03:19:01.725Z,89.08
2018-04-13T03:21:31.727Z,88.88
2018-04-13T03:24:01.768Z,89.00
2018-04-13T03:26:31.804Z,89.10
2018-04-13T03:29:01.014Z,89.28
2018-04-13T03:31:30.276Z,89.14
2018-04-13T03:34:00.261Z,89.02
2018-04-13T03:36:29.478Z,88.95
2018-04-13T03:38:59.527Z,89.23
2018-04-13T03:41:28.759Z,89.11
2018-04-13T03:43:58.710Z,89.31
2018-04-13T03:46:28.689Z,89.31
2018-04-13T03:48:57.933Z,89.31
2018-04-13T03:51:27.938Z,89.29
2018-04-13T03:53:57.435Z,89.23
2018-04-13T03:56:26.686Z,89.11
2018-04-13T03:58:56.666Z,89.22
2018-04-13T04:01:25.941Z,89.18
2018-04-13T04:03:55.166Z,89.08
2018-04-13T04:06:24.629Z,89.16
2018-04-13T04:08:53.878Z,89.29
2018-04-13T04:11:23.116Z,89.18
2018-04-13T04:13:52.373Z,89.25
2018-04-13T04:16:22.395Z,89.35
2018-04-13T04:18:51.639Z,89.40
2018-04-13T04:24:47.266Z,89.12
2018-04-13T04:27:16.476Z,89.15
2018-04-13T04:29:45.750Z,89.20
2018-04-13T04:32:14.970Z,89.26
2018-04-13T04:34:44.227Z,89.23
2018-04-13T04:37:13.488Z,89.15
2018-04-13T04:39:42.666Z,89.27
2018-04-13T04:42:11.934Z,89.42
2018-04-13T04:44:42.010Z,89.44
2018-04-13T04:47:11.254Z,89.44
2018-04-13T04:49:40.481Z,89.53
2018-04-13T04:52:09.713Z,89.65
2018-04-13T04:54:39.701Z,89.84
2018-04-13T04:57:08.909Z,89.83
2018-04-13T04:59:38.976Z,89.82
2018-04-13T05:02:09.029Z,89.88
2018-04-13T05:04:38.248Z,90.02
2018-04-13T05:07:08.092Z,89.94
2018-04-13T05:09:37.301Z,90.15
2018-04-13T05:12:06.559Z,90.34
2018-04-13T05:14:35.730Z,90.48
2018-04-13T05:17:05.564Z,90.55
2018-04-13T05:19:35.677Z,91.17
2018-04-13T05:22:05.053Z,91.18
2018-04-13T05:24:34.291Z,91.48
2018-04-13T05:27:04.320Z,91.39
2018-04-13T05:29:33.524Z,91.32
2018-04-13T05:32:02.786Z,91.27
2018-04-13T05:34:32.031Z,91.10
2018-04-13T05:37:01.244Z,90.96
2018-04-13T05:39:30.468Z,90.92
2018-04-13T05:41:59.700Z,90.77
2018-04-13T05:44:28.954Z,90.70
2018-04-13T05:46:58.174Z,90.47
2018-04-13T05:49:28.190Z,90.33
2018-04-13T05:51:57.398Z,90.30
2018-04-13T05:54:27.405Z,90.06
2018-04-13T05:56:56.793Z,89.83
2018-04-13T05:59:26.016Z,89.49
2018-04-13T06:01:55.215Z,89.38
2018-04-13T06:04:25.248Z,88.98
2018-04-13T06:06:54.629Z,88.78
2018-04-13T06:09:24.645Z,88.65
2018-04-13T06:11:53.846Z,88.69
2018-04-13T06:14:23.859Z,88.51
2018-04-13T06:16:53.069Z,87.89
2018-04-13T06:19:23.086Z,87.93
2018-04-13T06:21:53.057Z,87.83
2018-04-13T06:24:22.350Z,87.51
2018-04-13T06:26:52.273Z,87.29
2018-04-13T06:29:21.476Z,87.25
2018-04-13T06:31:50.776Z,87.18
2018-04-13T06:34:20.112Z,87.13
2018-04-13T06:36:50.109Z,86.65
2018-04-13T06:39:19.312Z,86.67
2018-04-13T06:41:48.557Z,86.25
2018-04-13T06:44:17.802Z,86.06
2018-04-13T06:46:47.068Z,85.94
2018-04-13T06:49:16.242Z,85.93
2018-04-13T06:51:45.480Z,85.89
2018-04-13T06:54:14.678Z,85.52
2018-04-13T06:56:43.970Z,85.75
2018-04-13T06:59:13.409Z,85.62
2018-04-13T07:01:43.400Z,85.50
2018-04-13T07:04:12.620Z,85.21
2018-04-13T07:06:42.737Z,85.40
2018-04-13T07:09:12.737Z,85.46
2018-04-13T07:11:41.964Z,85.42
2018-04-13T07:14:11.962Z,84.73
2018-04-13T07:16:41.958Z,84.55
2018-04-13T07:19:11.184Z,84.25
2018-04-13T07:21:41.169Z,83.95
2018-04-13T07:24:10.398Z,84.13
2018-04-13T07:26:40.436Z,84.04
2018-04-13T07:29:09.610Z,83.89
2018-04-13T07:31:39.608Z,83.28
2018-04-13T07:34:08.974Z,82.27
2018-04-13T07:36:38.222Z,81.35
2018-04-13T07:39:08.223Z,81.80
2018-04-13T07:41:37.457Z,81.53
2018-04-13T07:44:06.680Z,80.82
2018-04-13T07:46:35.893Z,80.23
2018-04-13T07:49:06.120Z,79.43
2018-04-13T07:51:35.178Z,80.13
2018-04-13T07:54:04.502Z,81.17
2018-04-13T07:56:33.705Z,81.23
2018-04-13T07:59:02.950Z,80.94
2018-04-13T08:01:32.968Z,79.13
2018-04-13T08:04:02.994Z,79.41
2018-04-13T08:06:32.224Z,79.16
2018-04-13T08:09:01.438Z,78.04
2018-04-13T08:11:30.677Z,78.56
2018-04-13T08:14:00.000Z,76.58
2018-04-13T08:16:29.117Z,77.97
2018-04-13T08:18:58.329Z,76.03
2018-04-13T08:21:27.613Z,75.21
2018-04-13T08:23:56.854Z,76.37
2018-04-13T08:26:26.117Z,77.38
2018-04-13T08:28:55.317Z,74.55
2018-04-13T08:31:25.338Z,73.88
2018-04-13T08:33:55.313Z,74.19
2018-04-13T08:36:25.022Z,71.75
2018-04-13T08:38:54.985Z,73.35
2018-04-13T08:41:24.320Z,72.39
2018-04-13T08:43:53.485Z,72.26
2018-04-13T08:46:22.762Z,74.50
2018-04-13T08:48:52.228Z,74.06
2018-04-13T08:51:22.019Z,74.11
2018-04-13T08:53:52.058Z,71.21
2018-04-13T08:56:22.093Z,72.37
2018-04-13T08:58:51.322Z,73.26
2018-04-13T09:01:20.537Z,71.15
2018-04-13T09:03:49.767Z,68.78
2018-04-13T09:06:19.014Z,69.85
2018-04-13T09:08:48.275Z,68.13
2018-04-13T09:11:17.497Z,68.51
2018-04-13T09:13:46.710Z,70.04
2018-04-13T09:16:15.929Z,69.81
2018-04-13T09:18:45.153Z,69.82
2018-04-13T09:21:15.247Z,68.59
2018-04-13T09:23:44.697Z,70.47
2018-04-13T09:26:14.711Z,69.78
2018-04-13T09:28:43.934Z,72.27
2018-04-13T09:31:13.151Z,70.51
2018-04-13T09:33:42.409Z,71.65
2018-04-13T09:36:11.628Z,70.24
2018-04-13T09:38:40.890Z,68.66
2018-04-13T09:41:10.102Z,68.69
2018-04-13T09:43:39.333Z,70.36
2018-04-13T09:46:08.579Z,69.83
2018-04-13T09:48:37.766Z,68.39
2018-04-13T09:51:07.012Z,69.70
2018-04-13T09:53:36.257Z,69.33
2018-04-13T09:56:06.246Z,65.81
2018-04-13T09:58:35.527Z,64.80
2018-04-13T10:01:04.770Z,64.88
2018-04-13T10:03:40.146Z,66.01
2018-04-13T10:06:09.376Z,63.20
2018-04-13T10:08:38.635Z,64.14
2018-04-13T10:11:07.881Z,64.56
2018-04-13T10:13:37.123Z,63.77
2018-04-13T10:16:06.323Z,63.94
2018-04-13T10:18:35.610Z,66.54
2018-04-13T10:21:05.602Z,66.83
2018-04-13T10:23:34.809Z,67.60
2018-04-13T10:26:04.800Z,62.81
2018-04-13T10:28:34.064Z,65.44
2018-04-13T10:31:03.277Z,66.64
2018-04-13T10:33:32.565Z,67.44
2018-04-13T10:36:01.767Z,66.22
2018-04-13T10:38:30.992Z,64.33
2018-04-13T10:41:00.589Z,65.44
2018-04-13T10:43:30.130Z,63.57
2018-04-13T10:46:00.145Z,61.39
2018-04-13T10:48:29.366Z,62.31
2018-04-13T10:50:58.617Z,59.26
2018-04-13T10:53:27.866Z,60.17
2018-04-13T10:55:57.297Z,59.10
2018-04-13T10:58:26.509Z,59.57
2018-04-13T11:00:55.738Z,61.21
2018-04-13T11:03:25.777Z,61.77
2018-04-13T11:05:55.014Z,62.87
2018-04-13T11:08:24.253Z,64.61
2018-04-13T11:10:54.337Z,63.24
2018-04-13T11:13:23.575Z,61.60
2018-04-13T11:15:53.570Z,63.06
2018-04-13T11:18:23.585Z,61.90
2018-04-13T11:20:52.907Z,65.14
2018-04-13T11:23:22.968Z,63.31
2018-04-13T11:25:52.197Z,64.77
2018-04-13T11:28:21.439Z,64.56
2018-04-13T11:30:50.671Z,64.57
2018-04-13T11:33:20.102Z,63.80
2018-04-13T11:35:49.920Z,65.17
2018-04-13T11:38:19.931Z,65.62
2018-04-13T11:40:49.135Z,65.47
2018-04-13T11:43:18.447Z,66.59
2018-04-13T11:45:47.618Z,65.78
2018-04-13T11:48:16.883Z,65.00
2018-04-13T11:50:46.101Z,64.21
2018-04-13T11:53:15.392Z,64.40
2018-04-13T11:55:44.610Z,65.28
2018-04-13T11:58:13.865Z,66.49
2018-04-13T12:00:43.084Z,65.89
2018-04-13T12:03:12.305Z,66.53
2018-04-13T12:05:41.551Z,65.72
2018-04-13T12:08:11.512Z,65.14
2018-04-13T12:10:41.586Z,65.49
2018-04-13T12:13:10.809Z,65.75
2018-04-13T12:15:40.115Z,66.65
2018-04-13T12:18:09.318Z,66.98
2018-04-13T12:20:39.202Z,66.69
2018-04-13T12:23:08.437Z,68.48
2018-04-13T12:25:37.705Z,66.53
2018-04-13T12:28:06.938Z,67.18
2018-04-13T12:30:36.967Z,68.33
2018-04-13T12:33:06.203Z,67.89
2018-04-13T12:35:35.443Z,67.81
2018-04-13T12:38:04.648Z,67.03
2018-04-13T12:40:33.874Z,67.68
2018-04-13T12:43:03.074Z,66.96
2018-04-13T12:45:32.319Z,67.14
2018-04-13T12:48:01.526Z,67.07
2018-04-13T12:50:30.772Z,68.33
2018-04-13T12:53:00.746Z,67.84
2018-04-13T12:55:30.034Z,66.33
2018-04-13T12:57:59.205Z,66.05
2018-04-13T13:00:28.437Z,66.23
2018-04-13T13:02:57.671Z,66.60
2018-04-13T13:18:26.917Z,66.98
2018-04-13T13:20:56.142Z,66.82
2018-04-13T13:23:25.434Z,65.23
2018-04-13T13:25:54.647Z,66.13
2018-04-13T13:28:23.893Z,65.42
2018-04-13T13:30:53.128Z,65.22
2018-04-13T13:33:23.145Z,65.75
2018-04-13T13:35:53.798Z,65.07
2018-04-13T13:38:23.899Z,65.86
2018-04-13T13:40:53.916Z,65.64
2018-04-13T13:43:23.970Z,66.76
2018-04-13T13:45:53.204Z,67.33
2018-04-13T13:48:22.470Z,67.35
2018-04-13T14:03:51.734Z,69.46
2018-04-13T14:06:20.983Z,69.89
2018-04-13T14:08:50.267Z,70.02
2018-04-13T14:11:19.502Z,69.54
2018-04-13T14:13:48.770Z,69.91
2018-04-13T14:16:17.997Z,68.76
2018-04-13T14:18:47.232Z,68.85
2018-04-13T14:21:16.724Z,69.09
2018-04-13T14:23:46.418Z,68.36
2018-04-13T14:26:16.411Z,67.95
2018-04-13T14:28:45.658Z,67.30
2018-04-13T14:31:14.899Z,68.49
2018-04-13T14:33:44.166Z,68.72
2018-04-13T14:36:13.410Z,68.77
2018-04-13T14:38:42.692Z,70.17
2018-04-13T14:41:11.917Z,69.57
2018-04-13T14:43:41.915Z,68.25
2018-04-13T14:46:11.181Z,69.22
2018-04-13T14:48:40.450Z,69.42
2018-04-13T14:51:10.439Z,69.74
2018-04-13T14:53:40.418Z,70.49
2018-04-13T14:56:09.646Z,70.04
2018-04-13T14:58:38.909Z,70.32
2018-04-13T15:01:08.180Z,70.08
2018-04-13T15:03:37.446Z,69.42
2018-04-13T15:06:06.695Z,69.74
2018-04-13T15:08:35.954Z,69.38
2018-04-13T15:11:05.998Z,69.80
2018-04-13T15:13:35.248Z,69.91
2018-04-13T15:16:05.267Z,70.46
2018-04-13T15:18:34.528Z,70.52
2018-04-13T15:21:04.685Z,70.01
2018-04-13T15:23:33.909Z,70.34
2018-04-13T15:26:03.937Z,69.30
2018-04-13T15:28:33.185Z,69.15
2018-04-13T15:31:02.451Z,67.97
2018-04-13T15:33:31.708Z,68.65
2018-04-13T15:36:01.723Z,68.60
2018-04-13T15:38:30.969Z,68.91
2018-04-13T15:41:00.198Z,69.05
2018-04-13T15:43:29.427Z,69.31
2018-04-13T15:45:59.450Z,69.15
2018-04-13T15:48:29.462Z,69.43
2018-04-13T15:50:59.637Z,68.58
2018-04-13T15:53:28.849Z,67.76
2018-04-13T15:55:58.205Z,69.03
2018-04-13T15:58:28.170Z,68.05
2018-04-13T16:00:57.536Z,68.08
2018-04-13T16:03:26.752Z,68.57
2018-04-13T16:05:56.014Z,69.08
2018-04-13T16:08:25.234Z,69.68
2018-04-13T16:10:54.481Z,69.34
2018-04-13T16:13:24.090Z,69.77
2018-04-13T16:15:54.100Z,70.60
2018-04-13T16:18:23.357Z,70.17
2018-04-13T16:20:52.627Z,70.53
2018-04-13T16:23:22.614Z,70.93
2018-04-13T16:25:52.676Z,71.15
2018-04-13T16:28:22.662Z,71.89
2018-04-13T16:30:51.898Z,72.13
2018-04-13T16:33:21.241Z,71.97
2018-04-13T16:35:50.519Z,72.24
2018-04-13T16:38:19.764Z,72.34
2018-04-13T16:40:49.762Z,71.66
2018-04-13T16:43:19.755Z,71.98
2018-04-13T16:45:49.029Z,71.92
2018-04-13T16:48:18.262Z,72.00
2018-04-13T16:50:47.573Z,72.18
2018-04-13T16:53:17.563Z,72.19
2018-04-13T16:55:46.809Z,72.31
2018-04-13T16:58:16.084Z,72.43
2018-04-13T17:00:46.073Z,72.16
2018-04-13T17:03:15.363Z,72.07
2018-04-13T17:05:44.603Z,72.09
2018-04-13T17:08:14.646Z,72.59
2018-04-13T17:10:44.639Z,73.17
2018-04-13T17:13:14.638Z,73.03
2018-04-13T17:15:43.936Z,72.78
2018-04-13T17:18:13.199Z,72.63
2018-04-13T17:20:42.463Z,72.80
2018-04-13T17:23:12.492Z,72.98
2018-04-13T17:25:41.733Z,72.45
2018-04-13T17:28:10.938Z,73.19
2018-04-13T17:30:41.077Z,73.17
2018-04-13T17:33:11.070Z,73.22
2018-04-13T17:35:40.305Z,73.41
2018-04-13T17:38:09.713Z,73.54
2018-04-13T17:40:39.714Z,73.57
2018-04-13T17:43:08.982Z,73.50
2018-04-13T17:45:38.202Z,73.85
2018-04-13T17:48:08.547Z,73.81
2018-04-13T17:50:38.552Z,73.88
2018-04-13T17:53:07.820Z,74.25
2018-04-13T17:55:37.114Z,74.14
2018-04-13T17:58:06.321Z,74.17
2018-04-13T18:00:35.808Z,74.58
2018-04-13T18:03:05.066Z,74.44
2018-04-13T18:05:34.309Z,74.57
2018-04-13T18:08:03.593Z,74.66
2018-04-13T18:10:32.890Z,74.63
2018-04-13T18:13:02.177Z,74.35
2018-04-13T18:15:32.129Z,74.57
2018-04-13T18:18:01.414Z,74.74
2018-04-13T18:20:30.642Z,74.87
2018-04-13T18:23:00.687Z,75.03
2018-04-13T18:25:29.916Z,74.76
2018-04-13T18:27:59.131Z,74.48
2018-04-13T18:30:28.364Z,74.31
2018-04-13T18:32:57.657Z,74.21
2018-04-13T18:35:26.873Z,74.34
2018-04-13T18:37:56.133Z,74.22
2018-04-13T18:40:25.380Z,74.17
2018-04-13T18:42:54.633Z,74.18
2018-04-13T18:45:23.865Z,74.35
2018-04-13T18:47:53.112Z,74.49
2018-04-13T18:50:22.327Z,74.36
2018-04-13T18:52:51.564Z,74.51
2018-04-13T18:55:21.534Z,74.61
2018-04-13T18:57:50.844Z,74.45
2018-04-13T19:00:20.077Z,73.64
2018-04-13T19:02:49.322Z,74.39
2018-04-13T19:05:18.580Z,74.83
2018-04-13T19:07:47.846Z,74.67
2018-04-13T19:10:17.905Z,74.85
2018-04-13T19:12:47.127Z,74.81
2018-04-13T19:15:16.369Z,73.92
2018-04-13T19:17:45.602Z,74.04
2018-04-13T19:20:14.978Z,74.33
2018-04-13T19:22:44.189Z,74.31
2018-04-13T19:25:13.501Z,74.14
2018-04-13T19:27:42.741Z,74.51
2018-04-13T19:30:12.000Z,74.78
2018-04-13T19:32:41.237Z,74.50
2018-04-13T19:35:10.526Z,74.44
2018-04-13T19:37:39.774Z,74.37
2018-04-13T19:40:09.801Z,74.67
2018-04-13T19:42:38.986Z,74.83
2018-04-13T19:45:09.005Z,74.97
2018-04-13T19:47:38.262Z,74.87
2018-04-13T19:50:07.503Z,74.79
2018-04-13T19:52:36.748Z,75.04
2018-04-13T19:55:06.033Z,74.99
2018-04-13T19:57:35.258Z,75.33
2018-04-13T20:00:04.532Z,75.28
2018-04-13T20:02:33.742Z,75.30
2018-04-13T20:05:03.023Z,75.29
2018-04-13T20:07:32.231Z,75.33
2018-04-13T20:10:01.478Z,75.37
2018-04-13T20:12:31.478Z,75.25
2018-04-13T20:15:01.511Z,75.30
2018-04-13T20:17:31.549Z,75.26
2018-04-13T20:20:00.763Z,75.56
2018-04-13T20:22:30.030Z,75.49
2018-04-13T20:24:59.870Z,75.54
2018-04-13T20:27:29.104Z,75.69
2018-04-13T20:29:59.150Z,75.69
2018-04-13T20:32:29.183Z,75.88
2018-04-13T20:34:58.711Z,75.69
2018-04-13T20:37:28.001Z,75.97
2018-04-13T20:39:57.236Z,75.90
2018-04-13T20:42:26.511Z,76.27
2018-04-13T20:44:55.763Z,76.21
2018-04-13T20:47:25.771Z,76.07
2018-04-13T20:49:55.024Z,76.10
2018-04-13T20:52:24.272Z,75.91
2018-04-13T20:54:53.724Z,76.07
2018-04-13T20:57:22.921Z,76.01
2018-04-13T20:59:52.199Z,76.03
2018-04-13T21:02:21.467Z,76.13
2018-04-13T21:04:50.702Z,76.20
2018-04-13T21:07:19.952Z,76.30
2018-04-13T21:09:49.198Z,75.94
2018-04-13T21:12:18.930Z,75.99
2018-04-13T21:14:48.183Z,75.94
2018-04-13T21:17:18.191Z,76.10
2018-04-13T21:19:48.182Z,76.24
2018-04-13T21:22:17.433Z,76.11
2018-04-13T21:24:46.695Z,76.33
2018-04-13T21:27:16.395Z,76.27
2018-04-13T21:29:45.716Z,76.20
2018-04-13T21:32:15.849Z,76.22
2018-04-13T21:34:45.080Z,76.13
2018-04-13T21:37:14.376Z,76.48
2018-04-13T21:39:43.614Z,76.18
2018-04-13T21:42:12.859Z,76.34
2018-04-13T21:44:42.081Z,76.26
2018-04-13T21:47:11.313Z,76.25
2018-04-13T21:49:41.300Z,76.33
2018-04-13T21:52:10.532Z,76.42
2018-04-13T21:54:41.447Z,76.51
2018-04-13T21:57:10.703Z,76.43
2018-04-13T21:59:40.170Z,76.63
2018-04-13T22:02:10.172Z,76.51
2018-04-13T22:04:39.402Z,76.79
2018-04-13T22:07:08.673Z,76.86
2018-04-13T22:09:38.035Z,77.10
2018-04-13T22:25:42.655Z,77.16
2018-04-13T22:28:11.879Z,77.18
2018-04-13T22:30:41.094Z,77.34
2018-04-13T22:33:11.115Z,77.33
2018-04-13T22:35:41.106Z,77.36
2018-04-13T22:38:10.349Z,77.43
2018-04-13T22:40:39.602Z,77.39
2018-04-13T22:43:08.844Z,77.41
2018-04-13T22:45:38.941Z,77.25
2018-04-13T22:48:08.945Z,77.42
2018-04-13T22:50:38.158Z,77.70
2018-04-13T22:53:08.192Z,77.75
2018-04-13T22:55:37.456Z,77.79
2018-04-13T22:58:06.696Z,77.93
2018-04-13T23:00:36.649Z,77.97
2018-04-13T23:03:05.865Z,78.23
2018-04-13T23:05:35.084Z,78.51
2018-04-13T23:08:04.326Z,78.64
2018-04-13T23:10:33.746Z,78.83
2018-04-13T23:13:02.938Z,79.08
2018-04-13T23:15:32.183Z,79.26
2018-04-13T23:18:01.403Z,79.62
2018-04-13T23:20:30.672Z,79.63
2018-04-13T23:23:00.669Z,79.75
2018-04-13T23:25:29.926Z,79.86
2018-04-13T23:27:59.166Z,80.06
2018-04-13T23:30:28.435Z,80.16
2018-04-13T23:32:57.663Z,80.14
2018-04-13T23:35:26.928Z,80.38
2018-04-13T23:37:56.144Z,80.56
2018-04-13T23:40:25.419Z,80.77
2018-04-13T23:42:54.665Z,80.96
2018-04-13T23:45:24.690Z,81.03
2018-04-13T23:47:53.942Z,81.20
2018-04-13T23:50:23.213Z,81.31
2018-04-13T23:52:52.473Z,81.48
2018-04-13T23:55:22.456Z,81.53
2018-04-13T23:57:51.701Z,81.54
